Durango, CO

11:33 AM MDT on July 28, 2016 (GMT -0600)
Edgemont Highlands | | Change Station

Elev 7484 ft 37.31 °N, 107.79 °W | Updated 2 seconds ago

Clear
Clear
83.5 °F
Feels Like 81 °F
N
4.0
Wind Variable Wind from SE
Gusts 7.0 mph

Today
High -- | Low -- °F
--% Chance of Precip.
Yesterday
High -- | Low -- °F
Precip. -- in
Pressure 30.02 in
Visibility 10.0 miles
Clouds Clear
Heat Index 81 °F
Dew Point 47 °F
Humidity 28%
Rainfall Not available.
Snow Depth Not available.
6:13 AM 8:22 PM
Waning Crescent, 30% visible
METAR KDRO 281653Z AUTO VRB04KT 10SM CLR 28/07 A3032 RMK AO2 SLP166 T02780072
Pressure 30.02 in
Visibility 10.0 miles
Clouds Clear
Heat Index 81 °F
Dew Point 47 °F
Humidity 28%
Rainfall Not available.
Snow Depth Not available.
6:13 AM 8:22 PM
Waning Crescent, 30% visible
METAR KDRO 281653Z AUTO VRB04KT 10SM CLR 28/07 A3032 RMK AO2 SLP166 T02780072

10-Day Weather Forecast

Almanac

Astronomy

Jul. 28, 2016 Rise Set
Actual Time
Civil Twilight
Nautical Twilight
Astronomical Twilight
Moon
Length of Visible Light
Length of Day
Tomorrow will be .
, % of the Moon is Illuminated

Today's Extremes

State Highs State Lows

Community

WunderPhotos

Upload Photos

1,928,163 photos uploaded!

WunderBlog® & News

Nearby

Air Quality

  Air Quality AQ Index Pollutant
Not available.

Snow Depth

Station Depth Elevation

Earthquake Activity

City Distance Mag. Time & Date
Minimum magnitude displayed is 2.5.

Coastal Water Temperatures

Place Temperature

Stations

Nearby Weather Stations

Station Location Temp. Windchill Dew Point Humidity Wind Precip. Elev Updated Type
                   

Watches & Warnings

There are currently no watches in effect.